Time;durP1;ratioP1;P1;durP2;ratioP2;P2;SDS_P1;SDS_P2;PMS_P1;PMS_P2;Temp;Humidity;BMP_temperature;BMP_pressure;BME280_temperature;BME280_humidity;BME280_pressure;Samples;Min_cycle;Max_cycle;Signal;HPM_P1;HPM_P2
2024/02/18 00:01:08;;;;;;;20.63;9.07;;;;;;;-0.14;100.00;99316.56;4998643;28;20094;-66
2024/02/18 00:03:34;;;;;;;15.13;8.50;;;;;;;-0.15;100.00;99294.00;5014726;28;20345;-66
2024/02/18 00:06:00;;;;;;;16.47;7.63;;;;;;;-0.14;100.00;99310.53;5015125;28;20056;-66
2024/02/18 00:08:25;;;;;;;15.60;7.10;;;;;;;-0.11;100.00;99290.25;5031195;28;20132;-67
2024/02/18 00:10:53;;;;;;;12.07;6.20;;;;;;;-0.07;100.00;99302.19;4982321;28;20048;-67
2024/02/18 00:13:19;;;;;;;12.00;6.07;;;;;;;-0.05;100.00;99286.44;5014904;28;20124;-67
2024/02/18 00:15:45;;;;;;;11.40;5.67;;;;;;;-0.02;100.00;99305.31;4982587;28;20140;-66
2024/02/18 00:18:11;;;;;;;12.93;7.30;;;;;;;0.04;100.00;99288.44;4982388;28;20042;-66
2024/02/18 00:20:38;;;;;;;16.00;7.33;;;;;;;0.18;100.00;99292.75;4998279;28;20534;-66
2024/02/18 00:23:05;;;;;;;16.87;7.63;;;;;;;0.05;100.00;99286.66;5014750;28;20055;-66
2024/02/18 00:25:31;;;;;;;15.83;7.67;;;;;;;0.05;100.00;99271.00;5031202;28;20080;-66
2024/02/18 00:27:57;;;;;;;14.90;7.57;;;;;;;0.16;100.00;99277.16;4982407;28;20538;-66
2024/02/18 00:30:24;;;;;;;16.10;8.07;;;;;;;0.20;100.00;99278.63;4980903;28;20053;-66
2024/02/18 00:32:50;;;;;;;15.30;8.67;;;;;;;0.22;100.00;99275.91;4965332;28;20190;-70
2024/02/18 00:35:16;;;;;;;16.13;7.20;;;;;;;0.25;100.00;99286.19;4997709;28;20555;-67
2024/02/18 00:37:41;;;;;;;17.43;7.47;;;;;;;0.15;100.00;99265.06;4997384;28;20120;-67
2024/02/18 00:40:08;;;;;;;17.47;8.33;;;;;;;0.25;100.00;99284.38;4965046;28;20049;-67
2024/02/18 00:42:34;;;;;;;18.13;8.40;;;;;;;0.27;100.00;99269.47;4981623;28;20120;-66
2024/02/18 00:45:00;;;;;;;14.70;7.37;;;;;;;0.30;100.00;99266.66;4997535;28;20144;-66
2024/02/18 00:47:25;;;;;;;15.23;7.70;;;;;;;0.32;100.00;99266.53;5013993;28;20038;-67
2024/02/18 00:49:51;;;;;;;17.17;7.93;;;;;;;0.34;100.00;99254.22;5013043;28;20119;-66
2024/02/18 00:52:18;;;;;;;13.63;7.17;;;;;;;0.35;100.00;99261.09;5013759;28;20053;-67
2024/02/18 00:54:44;;;;;;;12.37;7.20;;;;;;;0.39;100.00;99252.13;4980923;28;20452;-66
2024/02/18 00:57:11;;;;;;;15.13;7.30;;;;;;;0.40;100.00;99245.97;4996960;28;20119;-67
2024/02/18 00:59:37;;;;;;;14.10;7.70;;;;;;;0.42;100.00;99246.69;4980890;28;20052;-65
2024/02/18 01:02:03;;;;;;;16.13;7.10;;;;;;;0.44;100.00;99253.50;5010076;28;20049;-66
2024/02/18 01:04:29;;;;;;;13.97;6.43;;;;;;;0.48;100.00;99248.91;5031782;28;20608;-66
2024/02/18 01:06:54;;;;;;;12.30;6.87;;;;;;;0.48;100.00;99241.88;4981748;28;20098;-67
2024/02/18 01:09:20;;;;;;;11.63;6.33;;;;;;;0.41;100.00;99247.63;5014315;28;20041;-67
2024/02/18 01:11:46;;;;;;;13.70;7.20;;;;;;;0.52;100.00;99243.38;5030737;28;20053;-66
2024/02/18 01:14:12;;;;;;;12.87;6.93;;;;;;;0.51;100.00;99233.84;5047230;28;20084;-67
2024/02/18 01:16:40;;;;;;;13.77;7.23;;;;;;;0.57;100.00;99230.78;5030567;28;20049;-67
2024/02/18 01:19:06;;;;;;;13.27;6.77;;;;;;;0.57;100.00;99202.06;5048289;28;20041;-67
2024/02/18 01:21:32;;;;;;;15.47;7.30;;;;;;;0.63;100.00;99217.31;5016231;28;20053;-67
2024/02/18 01:23:58;;;;;;;13.73;7.03;;;;;;;0.66;100.00;99224.13;4999758;28;20049;-67
2024/02/18 01:26:23;;;;;;;14.17;6.80;;;;;;;0.67;100.00;99218.78;5017042;28;20136;-67
2024/02/18 01:28:49;;;;;;;13.90;6.83;;;;;;;0.70;100.00;99209.88;5017216;28;20049;-68
2024/02/18 01:31:15;;;;;;;12.53;6.87;;;;;;;0.71;100.00;99211.56;5016682;28;20068;-67
2024/02/18 01:33:43;;;;;;;14.13;6.53;;;;;;;0.74;100.00;99195.69;5017209;28;20049;-67
2024/02/18 01:36:09;;;;;;;14.23;6.40;;;;;;;0.75;100.00;99206.03;5001547;28;20411;-68
2024/02/18 01:38:35;;;;;;;13.80;6.60;;;;;;;0.76;100.00;99207.69;5016819;28;20171;-67
2024/02/18 01:41:01;;;;;;;10.23;5.90;;;;;;;0.77;100.00;99185.81;5017318;28;20134;-68
2024/02/18 01:43:27;;;;;;;13.47;6.60;;;;;;;0.79;100.00;99201.41;5016750;28;20111;-67
2024/02/18 01:45:53;;;;;;;12.13;5.97;;;;;;;0.83;100.00;99202.88;5016769;28;20214;-68
2024/02/18 01:48:20;;;;;;;12.53;6.30;;;;;;;0.88;100.00;99212.03;4985364;28;20471;-68
2024/02/18 01:50:47;;;;;;;12.50;5.87;;;;;;;0.87;100.00;99194.69;5052907;28;20114;-67
2024/02/18 01:53:15;;;;;;;10.97;5.73;;;;;;;0.87;100.00;99181.63;5016709;28;20087;-68
2024/02/18 01:55:42;;;;;;;10.67;5.50;;;;;;;0.90;100.00;99175.34;5005119;28;20060;-67
2024/02/18 01:58:08;;;;;;;12.13;5.70;;;;;;;0.93;100.00;99181.19;5054290;28;20463;-69
2024/02/18 02:00:38;;;;;;;8.50;4.93;;;;;;;0.98;100.00;99180.88;5037617;28;20032;-68
2024/02/18 02:03:05;;;;;;;7.72;4.95;;;;;;;0.98;100.00;99173.03;5038154;28;20069;-68
2024/02/18 02:05:31;;;;;;;9.80;4.90;;;;;;;1.00;100.00;99161.50;5004155;28;20079;-68
2024/02/18 02:07:57;;;;;;;9.20;5.30;;;;;;;1.03;100.00;99176.16;5053846;28;20110;-68
2024/02/18 02:10:23;;;;;;;10.93;5.60;;;;;;;1.04;100.00;99167.34;5037562;28;20041;-68
2024/02/18 02:12:49;;;;;;;9.43;4.73;;;;;;;1.05;100.00;99182.94;5053936;28;20080;-67
2024/02/18 02:15:15;;;;;;;8.13;5.00;;;;;;;1.06;100.00;99168.09;5054074;28;20087;-67
2024/02/18 02:17:41;;;;;;;8.63;4.87;;;;;;;1.10;100.00;99166.91;5053533;28;20052;-68
2024/02/18 02:20:09;;;;;;;8.03;4.80;;;;;;;1.13;100.00;99172.75;5053454;28;20106;-69
2024/02/18 02:22:37;;;;;;;7.27;4.20;;;;;;;1.11;100.00;99150.25;5037363;28;20140;-68
2024/02/18 02:25:04;;;;;;;8.03;4.37;;;;;;;1.12;100.00;99149.34;5036906;28;20537;-69
2024/02/18 02:27:37;;;;;;;8.33;4.13;;;;;;;1.24;100.00;99156.28;5037326;28;20071;-67
2024/02/18 02:30:03;;;;;;;6.40;3.73;;;;;;;1.23;100.00;99157.25;5036694;28;20456;-67
2024/02/18 02:32:32;;;;;;;6.90;4.10;;;;;;;1.23;100.00;99170.31;5037385;28;20037;-68
2024/02/18 02:34:58;;;;;;;5.10;3.60;;;;;;;1.26;100.00;99151.78;5037072;28;20048;-67
2024/02/18 02:37:25;;;;;;;5.87;3.60;;;;;;;1.29;100.00;99151.56;5036524;28;20057;-67
2024/02/18 02:39:51;;;;;;;5.73;3.10;;;;;;;1.30;100.00;99154.06;5054005;28;20123;-67
2024/02/18 02:42:17;;;;;;;5.33;3.63;;;;;;;1.28;100.00;99147.25;5037603;28;20400;-67
2024/02/18 02:44:43;;;;;;;6.07;3.87;;;;;;;1.34;100.00;99145.03;5036833;28;20041;-67
2024/02/18 02:47:09;;;;;;;4.97;3.03;;;;;;;1.36;100.00;99134.47;5003925;28;20041;-67
2024/02/18 02:49:35;;;;;;;7.07;3.83;;;;;;;1.38;100.00;99140.44;5020347;28;20376;-67
2024/02/18 02:52:01;;;;;;;4.07;2.97;;;;;;;1.39;100.00;99140.31;5021061;28;20052;-67
2024/02/18 02:54:26;;;;;;;4.47;3.03;;;;;;;1.41;100.00;99132.34;5004660;28;20045;-67
2024/02/18 02:56:52;;;;;;;3.60;2.90;;;;;;;1.43;100.00;99148.78;5038109;28;20064;-67
2024/02/18 02:59:18;;;;;;;3.77;2.70;;;;;;;1.44;100.00;99146.03;5019642;28;20122;-67
2024/02/18 03:01:44;;;;;;;2.97;2.50;;;;;;;1.48;100.00;99126.53;5037244;28;20124;-67
2024/02/18 03:04:09;;;;;;;4.47;2.83;;;;;;;1.50;100.00;99126.44;5036535;28;20057;-68
2024/02/18 03:06:35;;;;;;;4.80;3.10;;;;;;;1.51;100.00;99126.31;5053435;28;20091;-68
2024/02/18 03:09:01;;;;;;;3.73;2.77;;;;;;;1.55;100.00;99150.47;5036953;28;20059;-67
2024/02/18 03:11:27;;;;;;;4.17;2.97;;;;;;;1.57;100.00;99125.00;5020459;28;20383;-67
2024/02/18 03:13:53;;;;;;;4.17;2.93;;;;;;;1.59;100.00;99123.97;5036430;28;20049;-68
2024/02/18 03:16:19;;;;;;;4.03;2.60;;;;;;;1.62;100.00;99123.75;5019444;28;20041;-67
2024/02/18 03:18:44;;;;;;;3.97;2.80;;;;;;;1.65;100.00;99122.66;5003443;28;20051;-67
2024/02/18 03:21:11;;;;;;;5.03;2.87;;;;;;;1.68;100.00;99115.44;5019231;28;20098;-68
2024/02/18 03:23:36;;;;;;;4.40;2.63;;;;;;;1.71;100.00;99103.88;5018909;28;20072;-67
2024/02/18 03:26:02;;;;;;;3.73;2.40;;;;;;;1.71;100.00;99102.09;5018751;28;20068;-68
2024/02/18 03:28:28;;;;;;;3.17;2.00;;;;;;;1.74;100.00;99106.25;5035846;28;20057;-68
2024/02/18 03:30:54;;;;;;;1.90;1.70;;;;;;;1.74;100.00;99098.41;5019153;28;20044;-67
2024/02/18 03:33:20;;;;;;;1.67;1.33;;;;;;;1.77;100.00;99098.19;5035528;28;20446;-68
2024/02/18 03:35:46;;;;;;;1.70;1.50;;;;;;;1.83;100.00;99105.56;5002440;28;20098;-68
2024/02/18 03:38:12;;;;;;;3.70;2.40;;;;;;;1.87;100.00;99109.63;5018751;28;20036;-68
2024/02/18 03:40:39;;;;;;;2.93;2.13;;;;;;;1.86;100.00;99102.72;5035349;28;20075;-68
2024/02/18 03:43:05;;;;;;;4.23;2.33;;;;;;;1.84;100.00;99096.78;5051749;28;20041;-69
2024/02/18 03:45:31;;;;;;;4.27;2.33;;;;;;;1.88;100.00;99113.91;5018538;28;20102;-68
2024/02/18 03:47:57;;;;;;;4.63;2.10;;;;;;;1.88;100.00;99094.78;5035508;28;20048;-66
2024/02/18 03:50:23;;;;;;;3.80;2.50;;;;;;;1.91;100.00;99111.06;5034894;28;20044;-67
2024/02/18 03:52:48;;;;;;;4.77;2.90;;;;;;;1.92;100.00;99097.03;5018718;28;20041;-67
2024/02/18 03:55:15;;;;;;;3.70;2.50;;;;;;;1.97;100.00;99110.59;5002924;28;20548;-67
2024/02/18 03:57:42;;;;;;;4.17;2.70;;;;;;;1.99;100.00;99111.31;5052190;28;20040;-67
2024/02/18 04:00:12;;;;;;;3.87;2.53;;;;;;;2.00;100.00;99094.63;5052324;28;20364;-69
2024/02/18 04:02:39;;;;;;;3.50;2.05;;;;;;;2.00;100.00;99104.31;5002582;28;20048;-67
2024/02/18 04:05:06;;;;;;;2.87;2.10;;;;;;;2.03;100.00;99112.72;5018478;28;20041;-67
2024/02/18 04:07:33;;;;;;;2.93;2.00;;;;;;;2.03;100.00;99112.72;5034790;28;20060;-67
2024/02/18 04:10:00;;;;;;;1.57;1.40;;;;;;;2.05;100.00;99108.22;5052226;28;20044;-67
2024/02/18 04:12:26;;;;;;;1.90;1.60;;;;;;;2.07;100.00;99108.09;5018249;28;20489;-67
2024/02/18 04:14:52;;;;;;;2.47;1.50;;;;;;;2.09;100.00;99114.06;5018075;28;20045;-68
2024/02/18 04:17:18;;;;;;;1.57;1.20;;;;;;;2.06;100.00;99111.69;5050891;28;20036;-68
2024/02/18 04:19:43;;;;;;;1.00;1.00;;;;;;;2.14;100.00;99120.59;5001635;28;20139;-67
2024/02/18 04:22:09;;;;;;;1.27;0.93;;;;;;;2.16;100.00;99123.94;5051156;28;20041;-67
2024/02/18 04:24:35;;;;;;;0.80;0.80;;;;;;;2.13;100.00;99121.56;5017928;28;20490;-67
2024/02/18 04:27:01;;;;;;;0.73;0.73;;;;;;;2.23;100.00;99125.13;5034844;28;20072;-67
2024/02/18 04:29:27;;;;;;;0.90;0.90;;;;;;;2.24;100.00;99113.72;5034339;28;20040;-68
2024/02/18 04:31:53;;;;;;;0.90;0.90;;;;;;;2.26;100.00;99111.78;5018049;28;20044;-68
2024/02/18 04:34:18;;;;;;;0.60;0.60;;;;;;;2.24;100.00;99108.47;5034208;28;20060;-67
2024/02/18 04:36:47;;;;;;;0.70;0.70;;;;;;;2.39;100.00;99123.00;5034672;28;20036;-67
2024/02/18 04:39:13;;;;;;;0.70;0.70;;;;;;;2.30;100.00;99128.13;5050863;28;20041;-67
2024/02/18 04:41:39;;;;;;;0.70;0.70;;;;;;;2.34;100.00;99119.91;5001462;28;20048;-68
2024/02/18 04:44:05;;;;;;;0.70;0.70;;;;;;;2.37;100.00;99129.31;5035450;28;20052;-67
2024/02/18 04:46:31;;;;;;;0.60;0.60;;;;;;;2.39;100.00;99127.41;5018879;28;20043;-68
2024/02/18 04:48:57;;;;;;;0.60;0.60;;;;;;;2.40;100.00;99144.81;5034378;28;20055;-67
2024/02/18 04:51:23;;;;;;;0.53;0.53;;;;;;;2.43;100.00;99128.84;5017823;28;20790;-68
2024/02/18 04:53:48;;;;;;;0.50;0.50;;;;;;;2.45;100.00;99127.75;5034307;28;20095;-68
2024/02/18 04:56:14;;;;;;;0.50;0.50;;;;;;;2.47;100.00;99130.25;5001737;28;20070;-68
2024/02/18 04:58:40;;;;;;;0.50;0.50;;;;;;;2.47;100.00;99138.97;5001673;28;20131;-67
2024/02/18 05:01:09;;;;;;;0.70;0.70;;;;;;;2.57;100.00;99141.72;5050636;28;20048;-66
2024/02/18 05:03:35;;;;;;;0.80;0.80;;;;;;;2.53;100.00;99138.50;5050385;28;20397;-68
2024/02/18 05:06:01;;;;;;;0.60;0.60;;;;;;;2.58;100.00;99141.59;5034452;28;20048;-68
2024/02/18 05:08:26;;;;;;;0.50;0.50;;;;;;;2.58;100.00;99149.47;5017445;28;20098;-68
2024/02/18 05:10:52;;;;;;;0.50;0.50;;;;;;;2.59;100.00;99151.13;5034042;28;20052;-68
2024/02/18 05:13:18;;;;;;;0.57;0.57;;;;;;;2.62;100.00;99150.88;5033925;28;20139;-68
2024/02/18 05:15:46;;;;;;;0.50;0.50;;;;;;;2.64;100.00;99145.50;5017723;28;20055;-68
2024/02/18 05:18:12;;;;;;;0.50;0.50;;;;;;;2.70;100.00;99145.88;5017582;28;20041;-67
2024/02/18 05:20:38;;;;;;;0.50;0.50;;;;;;;2.73;100.00;99145.63;5033580;28;20105;-68
2024/02/18 05:23:04;;;;;;;0.50;0.50;;;;;;;2.74;100.00;99160.38;5019330;28;20466;-67
2024/02/18 05:25:30;;;;;;;0.60;0.60;;;;;;;2.73;100.00;99152.66;5005390;28;20209;-68
2024/02/18 05:27:56;;;;;;;0.50;0.50;;;;;;;2.75;100.00;99148.13;5037980;28;20116;-68
2024/02/18 05:30:22;;;;;;;0.50;0.50;;;;;;;2.77;100.00;99156.69;5037529;28;20207;-68
2024/02/18 05:32:49;;;;;;;0.50;0.50;;;;;;;2.78;100.00;99156.56;5005098;28;20037;-69
2024/02/18 05:35:15;;;;;;;0.50;0.50;;;;;;;2.80;100.00;99161.69;5037738;28;20098;-68
2024/02/18 05:37:41;;;;;;;0.60;0.60;;;;;;;2.81;100.00;99164.22;5033997;28;20445;-69
2024/02/18 05:40:07;;;;;;;0.50;0.50;;;;;;;2.84;100.00;99168.38;5017820;28;20048;-66
2024/02/18 05:42:33;;;;;;;0.40;0.40;;;;;;;2.83;100.00;99164.91;5017985;28;20049;-68
2024/02/18 05:44:59;;;;;;;0.50;0.50;;;;;;;2.84;100.00;99168.38;5007932;28;20080;-69
2024/02/18 05:47:25;;;;;;;0.50;0.50;;;;;;;2.84;100.00;99171.84;5019634;28;20037;-68
2024/02/18 05:49:50;;;;;;;0.50;0.50;;;;;;;2.86;100.00;99179.59;5019399;28;20045;-68
2024/02/18 05:52:16;;;;;;;0.50;0.50;;;;;;;2.87;100.00;99184.72;5036278;28;20052;-68
2024/02/18 05:54:42;;;;;;;0.40;0.40;;;;;;;2.87;100.00;99181.25;5019559;28;20037;-68
2024/02/18 05:57:09;;;;;;;0.50;0.50;;;;;;;2.91;100.00;99182.66;5035843;28;20457;-67
2024/02/18 05:59:35;;;;;;;0.50;0.50;;;;;;;2.87;100.00;99189.94;5053134;28;20110;-68
2024/02/18 06:02:01;;;;;;;0.50;0.50;;;;;;;2.82;100.00;99184.22;5019397;28;20060;-67
2024/02/18 06:04:26;;;;;;;0.60;0.60;;;;;;;2.91;100.00;99190.53;5019495;28;20033;-68
2024/02/18 06:06:52;;;;;;;0.60;0.60;;;;;;;2.90;100.00;99194.94;5053101;28;20488;-66
2024/02/18 06:09:19;;;;;;;0.60;0.60;;;;;;;2.90;100.00;99208.06;5020424;28;20060;-67
2024/02/18 06:11:45;;;;;;;0.57;0.57;;;;;;;2.92;100.00;99210.56;5003428;28;20037;-67
2024/02/18 06:14:11;;;;;;;0.60;0.60;;;;;;;2.93;100.00;99214.84;5019413;28;20040;-68
2024/02/18 06:16:37;;;;;;;0.60;0.60;;;;;;;2.95;100.00;99213.75;5036233;28;20048;-67
2024/02/18 06:19:02;;;;;;;0.60;0.60;;;;;;;2.96;100.00;99223.31;5003460;28;20048;-67
2024/02/18 06:21:28;;;;;;;0.80;0.80;;;;;;;2.98;100.00;99220.56;5019106;28;20073;-68
2024/02/18 06:23:56;;;;;;;0.80;0.80;;;;;;;2.99;100.00;99224.84;5002680;28;20384;-68
2024/02/18 06:26:23;;;;;;;0.70;0.70;;;;;;;3.02;100.00;99224.59;5003276;28;20064;-68
2024/02/18 06:28:49;;;;;;;0.77;0.77;;;;;;;2.98;100.00;99229.25;5002869;28;20130;-67
2024/02/18 06:31:15;;;;;;;1.63;0.80;;;;;;;2.97;100.00;99226.75;5035226;28;20136;-66
2024/02/18 06:33:45;;;;;;;0.80;0.80;;;;;;;2.98;100.00;99229.25;5018757;28;20117;-67
2024/02/18 06:36:10;;;;;;;1.00;1.00;;;;;;;2.91;100.00;99229.84;5052568;28;20121;-66
2024/02/18 06:38:36;;;;;;;1.07;0.90;;;;;;;2.97;100.00;99242.50;5018939;28;20546;-66
2024/02/18 06:41:02;;;;;;;1.03;1.00;;;;;;;2.98;100.00;99246.81;5019011;28;20087;-71
2024/02/18 06:43:28;;;;;;;1.00;1.00;;;;;;;2.97;100.00;99238.09;5002709;28;20049;-70
2024/02/18 06:45:54;;;;;;;1.23;1.13;;;;;;;2.97;100.00;99251.22;5035137;28;20102;-70
2024/02/18 06:48:21;;;;;;;1.20;1.10;;;;;;;2.99;100.00;99257.19;5019329;28;20052;-66
2024/02/18 06:50:47;;;;;;;1.03;1.00;;;;;;;2.98;100.00;99247.63;5051691;28;20175;-70
2024/02/18 06:53:13;;;;;;;1.17;1.07;;;;;;;3.00;100.00;99253.59;5018667;28;20167;-72
2024/02/18 06:55:39;;;;;;;1.03;1.03;;;;;;;3.00;100.00;99264.06;5019025;28;20033;-67
2024/02/18 06:58:05;;;;;;;1.17;1.07;;;;;;;3.02;100.00;99261.34;5002438;28;20533;-75
2024/02/18 07:00:31;;;;;;;0.97;0.97;;;;;;;3.00;100.00;99258.84;5002490;28;20044;-71
2024/02/18 07:02:58;;;;;;;1.00;1.00;;;;;;;3.03;100.00;99263.00;5036145;28;20049;-74
2024/02/18 07:05:24;;;;;;;1.03;1.00;;;;;;;3.02;100.00;99267.44;5003529;28;20506;-73
2024/02/18 07:07:50;;;;;;;1.00;0.90;;;;;;;3.04;100.00;99262.06;5002227;28;20479;-72
2024/02/18 07:10:16;;;;;;;1.03;1.00;;;;;;;3.05;100.00;99277.69;5002475;28;20067;-69
2024/02/18 07:12:48;;;;;;;1.00;1.00;;;;;;;3.05;100.00;99282.06;5005466;28;20136;-70
2024/02/18 07:15:25;;;;;;;1.17;1.10;;;;;;;3.06;100.00;99274.09;5038993;28;20055;-73
2024/02/18 07:17:52;;;;;;;1.07;1.07;;;;;;;3.06;100.00;99279.34;5020029;28;20053;-74
2024/02/18 07:20:18;;;;;;;1.20;1.10;;;;;;;3.06;100.00;99276.72;5052404;28;20044;-71
2024/02/18 07:22:46;;;;;;;1.20;1.10;;;;;;;3.07;100.00;99280.19;5001993;28;20044;-73
2024/02/18 07:25:12;;;;;;;1.00;1.00;;;;;;;3.09;100.00;99286.97;5018348;28;20040;-72
2024/02/18 07:27:39;;;;;;;1.20;1.10;;;;;;;3.07;100.00;99283.66;5018083;28;20045;-75
2024/02/18 07:30:06;;;;;;;1.30;1.20;;;;;;;3.10;100.00;99291.28;4993142;28;20129;-73
2024/02/18 07:32:32;;;;;;;1.40;1.30;;;;;;;3.05;100.00;99293.41;5003808;28;20127;-74
2024/02/18 07:34:57;;;;;;;1.20;1.10;;;;;;;3.09;100.00;99301.91;5046049;28;20087;-73
2024/02/18 07:37:23;;;;;;;1.27;1.17;;;;;;;3.08;100.00;99293.19;5001706;28;20420;-73
2024/02/18 07:39:49;;;;;;;1.10;1.10;;;;;;;3.08;100.00;99303.66;5034130;28;20048;-72
2024/02/18 07:42:14;;;;;;;1.20;1.10;;;;;;;3.02;100.00;99292.81;5050392;28;20139;-76
2024/02/18 07:44:44;;;;;;;1.00;1.00;;;;;;;3.18;100.00;99301.16;5050772;28;20147;-77
2024/02/18 07:47:11;;;;;;;1.38;1.08;;;;;;;3.11;100.00;99308.69;5050018;28;20578;-76
2024/02/18 07:49:37;;;;;;;1.07;1.00;;;;;;;3.05;100.00;99322.28;5052281;28;20048;-74
2024/02/18 07:52:04;;;;;;;1.00;1.00;;;;;;;3.10;100.00;99317.50;5050948;28;20049;-74
2024/02/18 07:54:29;;;;;;;1.30;1.20;;;;;;;3.12;100.00;99320.03;5052398;28;20040;-74
2024/02/18 07:56:55;;;;;;;1.53;1.20;;;;;;;3.11;100.00;99324.41;5050762;28;20051;-75
2024/02/18 07:59:24;;;;;;;0.93;0.93;;;;;;;3.13;100.00;99327.75;5051217;28;20187;-76
2024/02/18 08:01:50;;;;;;;1.20;1.10;;;;;;;3.16;100.00;99330.16;5047380;28;20044;-76
2024/02/18 08:04:17;;;;;;;1.33;1.07;;;;;;;3.13;100.00;99335.63;5050598;28;20037;-77
2024/02/18 08:06:43;;;;;;;1.47;1.20;;;;;;;3.14;100.00;99320.72;5034523;28;20044;-75
2024/02/18 08:09:09;;;;;;;1.30;1.20;;;;;;;3.17;100.00;99344.09;5051426;28;20059;-76
2024/02/18 08:11:34;;;;;;;1.30;1.20;;;;;;;3.18;100.00;99349.22;5018021;28;20044;-76
2024/02/18 08:14:00;;;;;;;1.40;1.30;;;;;;;3.18;100.00;99336.09;5050177;28;20359;-79
2024/02/18 08:16:26;;;;;;;1.73;1.30;;;;;;;3.20;100.00;99339.44;5017372;28;20052;-76
2024/02/18 08:18:54;;;;;;;1.30;1.20;;;;;;;3.22;100.00;99345.41;5034917;28;20045;-77
2024/02/18 08:21:26;;;;;;;1.07;1.03;;;;;;;3.30;100.00;99355.31;5020188;28;20139;-83
2024/02/18 08:23:51;;;;;;;1.40;1.30;;;;;;;3.23;100.00;99349.69;5003298;28;20063;-81
2024/02/18 08:26:23;;;;;;;1.53;1.43;;;;;;;3.32;100.00;99369.16;5002440;28;20057;-82
2024/02/18 08:28:50;;;;;;;1.20;1.10;;;;;;;3.28;100.00;99362.47;5016926;28;20044;-76
2024/02/18 08:31:16;;;;;;;1.53;1.40;;;;;;;3.23;100.00;99373.31;5016746;28;20052;-76
2024/02/18 08:33:43;;;;;;;1.60;1.50;;;;;;;3.24;100.00;99347.91;5000376;28;20106;-75
2024/02/18 08:36:09;;;;;;;1.50;1.40;;;;;;;3.20;100.00;99364.84;5016917;28;20045;-76
2024/02/18 08:38:35;;;;;;;1.50;1.40;;;;;;;3.19;100.00;99379.78;5034282;28;20478;-80
2024/02/18 08:41:02;;;;;;;1.60;1.30;;;;;;;3.18;100.00;99372.81;5034060;28;20040;-76
2024/02/18 08:43:28;;;;;;;1.53;1.43;;;;;;;3.19;100.00;99378.91;5034305;28;20036;-81
2024/02/18 08:45:58;;;;;;;1.20;1.10;;;;;;;3.21;100.00;99382.28;5002419;28;20047;-80
2024/02/18 08:48:24;;;;;;;1.90;1.30;;;;;;;3.22;100.00;99379.53;5017252;28;20041;-79
2024/02/18 08:50:51;;;;;;;1.30;1.20;;;;;;;3.22;100.00;99381.31;5016256;28;20053;-81
2024/02/18 08:53:21;;;;;;;1.30;1.20;;;;;;;3.26;100.00;99382.72;5019552;28;20062;-82
2024/02/18 08:55:47;;;;;;;1.00;1.00;;;;;;;3.29;100.00;99385.97;5015635;28;20053;-78
2024/02/18 08:58:15;;;;;;;1.10;1.00;;;;;;;3.32;100.00;99380.47;5012850;28;20041;-78
2024/02/18 09:00:45;;;;;;;1.00;0.90;;;;;;;3.34;100.00;99391.69;4991362;28;20130;-78
2024/02/18 09:03:11;;;;;;;1.07;1.00;;;;;;;3.38;100.00;99390.50;5027555;28;20118;-80
2024/02/18 09:05:44;;;;;;;1.00;1.00;;;;;;;3.44;100.00;99392.63;4997954;28;20040;-78
2024/02/18 09:08:10;;;;;;;1.20;1.10;;;;;;;3.43;100.00;99393.59;4973922;28;20061;-79
2024/02/18 09:10:38;;;;;;;0.90;0.90;;;;;;;3.45;100.00;99399.56;4977445;28;20407;-77
2024/02/18 09:13:05;;;;;;;1.53;1.00;;;;;;;3.46;100.00;99400.41;5007586;28;20103;-77
2024/02/18 09:15:32;;;;;;;1.17;1.10;;;;;;;3.51;100.00;99400.88;4992010;28;20064;-80
2024/02/18 09:17:58;;;;;;;1.10;1.00;;;;;;;3.53;100.00;99408.63;4968362;28;20078;-77
2024/02/18 09:20:25;;;;;;;2.10;1.10;;;;;;;3.55;100.00;99402.31;4952619;28;20429;-77
2024/02/18 09:22:52;;;;;;;0.97;0.97;;;;;;;3.58;100.00;99409.97;4934547;28;20054;-78
2024/02/18 09:25:18;;;;;;;1.30;1.20;;;;;;;3.58;100.00;99409.13;4634655;28;8560674;-82
2024/02/18 09:27:45;;;;;;;1.20;1.00;;;;;;;3.61;100.00;99407.09;4917469;29;20094;-76
2024/02/18 09:30:12;;;;;;;1.30;1.20;;;;;;;3.72;100.00;99411.50;4941483;29;20066;-75
2024/02/18 09:32:40;;;;;;;2.23;1.30;;;;;;;3.80;100.00;99412.56;4931742;28;20163;-77
2024/02/18 09:35:08;;;;;;;1.20;1.10;;;;;;;3.89;100.00;99413.63;4934629;29;20055;-76
2024/02/18 09:37:36;;;;;;;1.30;1.20;;;;;;;3.93;100.00;99418.53;4936898;28;20190;-75
2024/02/18 09:40:05;;;;;;;1.63;1.20;;;;;;;3.98;100.00;99413.75;4991286;28;20056;-76
2024/02/18 09:42:34;;;;;;;0.98;0.98;;;;;;;3.94;100.00;99416.72;4991113;28;20041;-75
2024/02/18 09:45:11;;;;;;;1.40;1.17;;;;;;;3.93;100.00;99413.28;4979450;28;20045;-79
2024/02/18 09:47:43;;;;;;;1.20;1.00;;;;;;;3.86;100.00;99413.88;4987529;28;20073;-77
2024/02/18 09:50:15;;;;;;;1.77;1.20;;;;;;;3.79;100.00;99423.19;5023228;28;20046;-78
2024/02/18 09:52:48;;;;;;;1.27;1.17;;;;;;;3.79;100.00;99421.41;4999812;28;20418;-80
2024/02/18 09:55:18;;;;;;;1.30;1.20;;;;;;;3.73;100.00;99428.91;5006078;28;20049;-77
2024/02/18 09:57:47;;;;;;;1.38;1.27;;;;;;;3.70;100.00;99432.63;4976888;28;20080;-76
2024/02/18 10:00:14;;;;;;;1.73;1.20;;;;;;;3.75;100.00;99437.53;4989030;28;20053;-75
2024/02/18 10:02:48;;;;;;;2.17;1.30;;;;;;;3.70;100.00;99437.03;4994819;28;20049;-77
2024/02/18 10:05:16;;;;;;;2.60;1.40;;;;;;;3.65;100.00;99441.81;5008189;28;20046;-73
2024/02/18 10:07:58;;;;;;;1.43;1.33;;;;;;;3.75;100.00;99442.78;5011858;28;20115;-74
2024/02/18 10:10:24;;;;;;;1.60;1.50;;;;;;;3.65;100.00;99447.91;4992731;28;20092;-73
2024/02/18 10:12:54;;;;;;;3.47;1.67;;;;;;;3.63;100.00;99446.38;4948057;28;20565;-74
2024/02/18 10:15:22;;;;;;;2.13;1.80;;;;;;;3.61;100.00;99462.25;4963063;28;20496;-73
2024/02/18 10:17:49;;;;;;;2.13;1.87;;;;;;;3.58;100.00;99451.97;4962432;28;20069;-75
2024/02/18 10:20:19;;;;;;;2.87;2.00;;;;;;;3.59;100.00;99453.63;4969451;28;20080;-75
2024/02/18 10:22:45;;;;;;;4.23;2.60;;;;;;;3.53;100.00;99462.00;4969246;28;20038;-76
2024/02/18 10:25:11;;;;;;;2.30;2.00;;;;;;;3.51;100.00;99469.13;4961358;28;20061;-76
2024/02/18 10:27:41;;;;;;;2.25;2.05;;;;;;;3.47;100.00;99473.78;4985466;28;20137;-78
2024/02/18 10:30:08;;;;;;;2.90;2.10;;;;;;;3.48;100.00;99479.88;4951993;28;20153;-76
2024/02/18 10:32:40;;;;;;;2.27;2.07;;;;;;;3.44;100.00;99479.25;4978620;28;20427;-75
2024/02/18 10:35:10;;;;;;;2.00;1.80;;;;;;;3.43;100.00;99477.59;4983541;28;20123;-75
2024/02/18 10:37:39;;;;;;;2.33;1.90;;;;;;;3.45;100.00;99482.75;4984961;28;20064;-76
2024/02/18 10:40:53;;;;;;;2.47;1.90;;;;;;;3.52;100.00;99483.97;4988717;28;20049;-78
2024/02/18 10:43:25;;;;;;;1.90;1.70;;;;;;;3.48;100.00;99487.75;4968348;28;20047;-77
2024/02/18 10:45:55;;;;;;;1.90;1.70;;;;;;;3.41;100.00;99490.00;5000601;28;20049;-78
2024/02/18 10:48:26;;;;;;;1.70;1.60;;;;;;;3.44;100.00;99489.75;4956764;28;20061;-76
2024/02/18 10:50:52;;;;;;;1.80;1.70;;;;;;;3.42;100.00;99494.31;4993678;28;20050;-77
2024/02/18 10:53:48;;;;;;;1.67;1.57;;;;;;;3.54;100.00;99508.28;4963746;28;20057;-76
2024/02/18 10:56:22;;;;;;;1.60;1.50;;;;;;;3.56;100.00;99500.28;4892996;29;20048;-76
2024/02/18 10:59:32;;;;;;;2.27;1.60;;;;;;;3.61;100.00;99500.78;4886558;29;20079;-76
2024/02/18 11:02:11;;;;;;;1.58;1.48;;;;;;;3.61;100.00;99500.78;4895774;29;20060;-76
2024/02/18 11:04:41;;;;;;;2.75;1.80;;;;;;;3.57;100.00;99494.09;4862317;29;20060;-76
2024/02/18 11:07:11;;;;;;;2.10;1.60;;;;;;;3.58;100.00;99514.16;4877480;29;20151;-76
2024/02/18 11:09:38;;;;;;;2.37;1.60;;;;;;;3.58;100.00;99507.13;4847952;29;20076;-75
2024/02/18 11:12:05;;;;;;;2.07;1.60;;;;;;;3.58;100.00;99511.53;4864931;29;20112;-75
2024/02/18 11:14:33;;;;;;;1.40;1.30;;;;;;;3.59;100.00;99510.56;4875987;29;20091;-75
2024/02/18 11:17:03;;;;;;;2.80;1.77;;;;;;;3.65;100.00;99508.31;4914969;29;20464;-75
2024/02/18 11:19:33;;;;;;;1.60;1.50;;;;;;;3.61;100.00;99514.75;4879597;29;20060;-75
2024/02/18 11:22:03;;;;;;;2.63;1.47;;;;;;;3.68;100.00;99521.19;4895386;29;21006;-74
2024/02/18 11:24:29;;;;;;;1.50;1.40;;;;;;;3.66;100.00;99530.16;4880475;29;20052;-75
2024/02/18 11:26:57;;;;;;;2.70;1.93;;;;;;;3.73;100.00;99521.69;4890407;29;20498;-74
2024/02/18 11:29:26;;;;;;;2.37;1.87;;;;;;;3.77;100.00;99536.25;4933420;28;20056;-74
2024/02/18 11:31:53;;;;;;;4.93;2.80;;;;;;;3.71;100.00;99528.84;4902665;29;20761;-74